sensor_id;sensor_type;location;lat;lon;timestamp;pressure;altitude;pressure_sealevel;temperature;humidity
13367;BME280;6752;52.612;13.630;2023-08-08T00:04:41;100230.65;;;14.37;99.95
13367;BME280;6752;52.612;13.630;2023-08-08T00:09:44;100226.87;;;14.30;100.00
13367;BME280;6752;52.612;13.630;2023-08-08T00:14:46;100228.05;;;14.14;100.00
13367;BME280;6752;52.612;13.630;2023-08-08T00:19:48;100228.70;;;14.00;100.00
13367;BME280;6752;52.612;13.630;2023-08-08T00:24:51;100225.87;;;13.95;100.00
13367;BME280;6752;52.612;13.630;2023-08-08T00:29:53;100233.30;;;13.86;100.00
13367;BME280;6752;52.612;13.630;2023-08-08T00:34:55;100238.77;;;13.75;100.00
13367;BME280;6752;52.612;13.630;2023-08-08T00:39:58;100234.63;;;13.72;100.00
13367;BME280;6752;52.612;13.630;2023-08-08T00:45:00;100229.59;;;13.67;100.00
13367;BME280;6752;52.612;13.630;2023-08-08T00:50:02;100219.91;;;13.59;100.00
13367;BME280;6752;52.612;13.630;2023-08-08T00:55:05;100219.78;;;13.49;100.00
13367;BME280;6752;52.612;13.630;2023-08-08T01:00:07;100232.86;;;13.47;100.00
13367;BME280;6752;52.612;13.630;2023-08-08T01:05:10;100227.51;;;13.46;100.00
13367;BME280;6752;52.612;13.630;2023-08-08T01:10:16;100228.59;;;13.45;100.00
13367;BME280;6752;52.612;13.630;2023-08-08T01:15:17;100223.78;;;13.44;100.00
13367;BME280;6752;52.612;13.630;2023-08-08T01:20:20;100234.31;;;13.44;100.00
13367;BME280;6752;52.612;13.630;2023-08-08T01:25:22;100230.03;;;13.31;100.00
13367;BME280;6752;52.612;13.630;2023-08-08T01:30:24;100222.94;;;13.32;100.00
13367;BME280;6752;52.612;13.630;2023-08-08T01:35:29;100220.07;;;13.33;100.00
13367;BME280;6752;52.612;13.630;2023-08-08T01:40:29;100228.20;;;13.36;100.00
13367;BME280;6752;52.612;13.630;2023-08-08T01:45:32;100226.83;;;13.36;100.00
13367;BME280;6752;52.612;13.630;2023-08-08T01:50:34;100232.63;;;13.40;100.00
13367;BME280;6752;52.612;13.630;2023-08-08T01:55:37;100223.26;;;13.36;100.00
13367;BME280;6752;52.612;13.630;2023-08-08T02:00:39;100215.25;;;13.40;99.07
13367;BME280;6752;52.612;13.630;2023-08-08T02:05:41;100212.76;;;13.39;99.76
13367;BME280;6752;52.612;13.630;2023-08-08T02:10:43;100215.17;;;13.35;99.94
13367;BME280;6752;52.612;13.630;2023-08-08T02:15:46;100212.78;;;13.30;100.00
13367;BME280;6752;52.612;13.630;2023-08-08T02:20:48;100207.05;;;13.32;100.00
13367;BME280;6752;52.612;13.630;2023-08-08T02:25:50;100196.97;;;13.35;100.00
13367;BME280;6752;52.612;13.630;2023-08-08T02:30:53;100204.28;;;13.29;100.00
13367;BME280;6752;52.612;13.630;2023-08-08T02:35:55;100201.04;;;13.32;100.00
13367;BME280;6752;52.612;13.630;2023-08-08T02:40:57;100192.09;;;13.29;100.00
13367;BME280;6752;52.612;13.630;2023-08-08T02:46:00;100205.95;;;13.25;100.00
13367;BME280;6752;52.612;13.630;2023-08-08T02:51:02;100198.27;;;13.16;100.00
13367;BME280;6752;52.612;13.630;2023-08-08T02:56:05;100199.11;;;13.08;100.00
13367;BME280;6752;52.612;13.630;2023-08-08T03:01:07;100196.56;;;12.95;100.00
13367;BME280;6752;52.612;13.630;2023-08-08T03:06:09;100202.38;;;12.90;100.00
13367;BME280;6752;52.612;13.630;2023-08-08T03:11:12;100194.33;;;12.92;100.00
13367;BME280;6752;52.612;13.630;2023-08-08T03:16:14;100191.60;;;12.84;100.00
13367;BME280;6752;52.612;13.630;2023-08-08T03:21:16;100190.56;;;12.79;100.00
13367;BME280;6752;52.612;13.630;2023-08-08T03:26:19;100182.00;;;12.75;100.00
13367;BME280;6752;52.612;13.630;2023-08-08T03:31:21;100190.08;;;12.59;100.00
13367;BME280;6752;52.612;13.630;2023-08-08T03:36:23;100193.89;;;12.67;100.00
13367;BME280;6752;52.612;13.630;2023-08-08T03:41:26;100194.05;;;12.60;100.00
13367;BME280;6752;52.612;13.630;2023-08-08T03:46:28;100206.77;;;12.69;100.00
13367;BME280;6752;52.612;13.630;2023-08-08T03:51:31;100200.69;;;12.73;100.00
13367;BME280;6752;52.612;13.630;2023-08-08T03:56:33;100202.34;;;12.74;100.00
13367;BME280;6752;52.612;13.630;2023-08-08T04:01:35;100204.73;;;12.84;100.00
13367;BME280;6752;52.612;13.630;2023-08-08T04:06:38;100208.01;;;12.92;100.00
13367;BME280;6752;52.612;13.630;2023-08-08T04:11:40;100202.66;;;13.00;100.00
13367;BME280;6752;52.612;13.630;2023-08-08T04:16:42;100201.89;;;13.02;100.00
13367;BME280;6752;52.612;13.630;2023-08-08T04:21:45;100204.88;;;13.08;100.00
13367;BME280;6752;52.612;13.630;2023-08-08T04:26:47;100188.33;;;13.10;100.00
13367;BME280;6752;52.612;13.630;2023-08-08T04:31:49;100184.34;;;13.17;100.00
13367;BME280;6752;52.612;13.630;2023-08-08T04:36:52;100196.30;;;13.19;100.00
13367;BME280;6752;52.612;13.630;2023-08-08T04:41:54;100196.18;;;13.20;100.00
13367;BME280;6752;52.612;13.630;2023-08-08T04:46:57;100201.11;;;13.21;100.00
13367;BME280;6752;52.612;13.630;2023-08-08T04:51:59;100203.04;;;13.29;100.00
13367;BME280;6752;52.612;13.630;2023-08-08T04:57:01;100202.16;;;13.34;100.00
13367;BME280;6752;52.612;13.630;2023-08-08T05:02:04;100207.53;;;13.37;100.00
13367;BME280;6752;52.612;13.630;2023-08-08T05:07:06;100201.19;;;13.51;100.00
13367;BME280;6752;52.612;13.630;2023-08-08T05:12:08;100203.20;;;13.77;100.00
13367;BME280;6752;52.612;13.630;2023-08-08T05:17:11;100192.66;;;14.00;100.00
13367;BME280;6752;52.612;13.630;2023-08-08T05:22:13;100197.02;;;13.87;100.00
13367;BME280;6752;52.612;13.630;2023-08-08T05:27:15;100201.73;;;13.81;100.00
13367;BME280;6752;52.612;13.630;2023-08-08T05:32:18;100205.64;;;13.87;100.00
13367;BME280;6752;52.612;13.630;2023-08-08T05:37:20;100204.77;;;13.95;100.00
13367;BME280;6752;52.612;13.630;2023-08-08T05:42:22;100194.48;;;14.02;100.00
13367;BME280;6752;52.612;13.630;2023-08-08T05:47:25;100190.77;;;14.46;100.00
13367;BME280;6752;52.612;13.630;2023-08-08T05:52:27;100194.45;;;14.59;100.00
13367;BME280;6752;52.612;13.630;2023-08-08T05:57:30;100189.66;;;14.90;100.00
13367;BME280;6752;52.612;13.630;2023-08-08T06:02:32;100187.55;;;14.97;100.00
13367;BME280;6752;52.612;13.630;2023-08-08T06:07:34;100199.94;;;15.18;100.00
13367;BME280;6752;52.612;13.630;2023-08-08T06:12:37;100201.31;;;14.89;100.00
13367;BME280;6752;52.612;13.630;2023-08-08T06:17:39;100199.98;;;15.10;100.00
13367;BME280;6752;52.612;13.630;2023-08-08T06:22:41;100206.57;;;15.44;100.00
13367;BME280;6752;52.612;13.630;2023-08-08T06:27:44;100201.42;;;15.57;100.00
13367;BME280;6752;52.612;13.630;2023-08-08T06:32:46;100202.48;;;15.49;100.00
13367;BME280;6752;52.612;13.630;2023-08-08T06:37:48;100190.16;;;16.06;100.00
13367;BME280;6752;52.612;13.630;2023-08-08T06:42:51;100202.12;;;16.06;100.00
13367;BME280;6752;52.612;13.630;2023-08-08T06:47:53;100207.01;;;15.89;100.00
13367;BME280;6752;52.612;13.630;2023-08-08T06:52:56;100207.88;;;16.33;100.00
13367;BME280;6752;52.612;13.630;2023-08-08T06:57:58;100203.29;;;16.20;100.00
13367;BME280;6752;52.612;13.630;2023-08-08T07:03:00;100219.30;;;16.07;100.00
13367;BME280;6752;52.612;13.630;2023-08-08T07:08:03;100215.53;;;15.90;100.00
13367;BME280;6752;52.612;13.630;2023-08-08T07:13:05;100220.06;;;15.87;100.00
13367;BME280;6752;52.612;13.630;2023-08-08T07:18:08;100219.58;;;16.06;100.00
13367;BME280;6752;52.612;13.630;2023-08-08T07:23:10;100224.66;;;16.08;100.00
13367;BME280;6752;52.612;13.630;2023-08-08T07:28:12;100215.67;;;16.23;100.00
13367;BME280;6752;52.612;13.630;2023-08-08T07:33:14;100214.87;;;16.32;100.00
13367;BME280;6752;52.612;13.630;2023-08-08T07:38:17;100208.84;;;16.95;100.00
13367;BME280;6752;52.612;13.630;2023-08-08T07:43:19;100218.69;;;16.65;98.30
13367;BME280;6752;52.612;13.630;2023-08-08T07:48:21;100216.14;;;16.82;98.43
13367;BME280;6752;52.612;13.630;2023-08-08T07:53:24;100221.34;;;16.73;97.29
13367;BME280;6752;52.612;13.630;2023-08-08T07:58:26;100205.82;;;16.86;98.36
13367;BME280;6752;52.612;13.630;2023-08-08T08:03:29;100206.78;;;16.83;96.80
13367;BME280;6752;52.612;13.630;2023-08-08T08:08:31;100212.12;;;17.58;94.71
13367;BME280;6752;52.612;13.630;2023-08-08T08:13:33;100211.47;;;17.16;93.27
13367;BME280;6752;52.612;13.630;2023-08-08T08:18:36;100214.63;;;17.41;91.75
13367;BME280;6752;52.612;13.630;2023-08-08T08:23:38;100206.87;;;17.74;87.72
13367;BME280;6752;52.612;13.630;2023-08-08T08:28:40;100199.41;;;18.76;86.02
13367;BME280;6752;52.612;13.630;2023-08-08T08:33:43;100196.20;;;18.29;82.60
13367;BME280;6752;52.612;13.630;2023-08-08T08:38:45;100201.02;;;17.96;85.87
13367;BME280;6752;52.612;13.630;2023-08-08T08:43:47;100199.44;;;17.79;88.92
13367;BME280;6752;52.612;13.630;2023-08-08T08:48:50;100193.28;;;17.38;88.13
13367;BME280;6752;52.612;13.630;2023-08-08T08:53:52;100199.65;;;17.93;87.90
13367;BME280;6752;52.612;13.630;2023-08-08T08:58:55;100201.44;;;17.93;85.95
13367;BME280;6752;52.612;13.630;2023-08-08T09:03:57;100202.63;;;17.54;84.97
13367;BME280;6752;52.612;13.630;2023-08-08T09:08:59;100197.37;;;17.71;84.83
13367;BME280;6752;52.612;13.630;2023-08-08T09:14:02;100187.58;;;18.88;78.35
13367;BME280;6752;52.612;13.630;2023-08-08T09:19:04;100189.87;;;19.73;77.99
13367;BME280;6752;52.612;13.630;2023-08-08T09:24:06;100183.45;;;19.77;74.57
13367;BME280;6752;52.612;13.630;2023-08-08T09:29:12;100183.34;;;19.18;74.52
13367;BME280;6752;52.612;13.630;2023-08-08T09:34:14;100188.80;;;18.89;77.29
13367;BME280;6752;52.612;13.630;2023-08-08T09:39:16;100178.02;;;19.26;75.32
13367;BME280;6752;52.612;13.630;2023-08-08T09:44:22;100178.43;;;18.75;76.65
13367;BME280;6752;52.612;13.630;2023-08-08T09:49:21;100174.09;;;18.81;75.89
13367;BME280;6752;52.612;13.630;2023-08-08T09:54:23;100185.59;;;20.07;73.42
13367;BME280;6752;52.612;13.630;2023-08-08T09:59:25;100181.09;;;18.71;77.24
13367;BME280;6752;52.612;13.630;2023-08-08T10:04:28;100168.55;;;19.88;75.14
13367;BME280;6752;52.612;13.630;2023-08-08T10:09:30;100161.08;;;19.88;69.92
13367;BME280;6752;52.612;13.630;2023-08-08T10:14:34;100181.58;;;18.78;79.44
13367;BME280;6752;52.612;13.630;2023-08-08T10:19:35;100200.53;;;18.16;95.60
13367;BME280;6752;52.612;13.630;2023-08-08T10:24:37;100179.13;;;17.87;100.00
13367;BME280;6752;52.612;13.630;2023-08-08T10:29:40;100175.72;;;18.13;100.00
13367;BME280;6752;52.612;13.630;2023-08-08T10:34:42;100169.08;;;19.63;96.08
13367;BME280;6752;52.612;13.630;2023-08-08T10:39:53;100150.63;;;20.65;95.28
13367;BME280;6752;52.612;13.630;2023-08-08T10:44:56;100151.64;;;20.53;89.18
13367;BME280;6752;52.612;13.630;2023-08-08T10:50:07;100136.42;;;21.99;82.93
13367;BME280;6752;52.612;13.630;2023-08-08T10:55:17;100122.47;;;21.90;76.91
13367;BME280;6752;52.612;13.630;2023-08-08T11:00:17;100112.27;;;21.61;69.71
13367;BME280;6752;52.612;13.630;2023-08-08T11:05:19;100193.13;;;19.02;84.13
13367;BME280;6752;52.612;13.630;2023-08-08T11:10:22;100178.42;;;17.91;100.00
13367;BME280;6752;52.612;13.630;2023-08-08T11:15:27;100161.34;;;18.88;97.11
13367;BME280;6752;52.612;13.630;2023-08-08T11:20:30;100147.16;;;20.99;96.78
13367;BME280;6752;52.612;13.630;2023-08-08T11:25:31;100148.45;;;19.91;93.03
13367;BME280;6752;52.612;13.630;2023-08-08T11:30:34;100147.87;;;22.11;91.10
13367;BME280;6752;52.612;13.630;2023-08-08T11:35:36;100130.27;;;21.47;76.81
13367;BME280;6752;52.612;13.630;2023-08-08T11:40:38;100117.89;;;21.76;78.68
13367;BME280;6752;52.612;13.630;2023-08-08T11:45:42;100119.43;;;21.48;74.33
13367;BME280;6752;52.612;13.630;2023-08-08T11:50:43;100140.27;;;19.81;66.92
13367;BME280;6752;52.612;13.630;2023-08-08T11:55:45;100141.83;;;19.52;64.71
13367;BME280;6752;52.612;13.630;2023-08-08T12:00:48;100143.73;;;20.35;64.71
13367;BME280;6752;52.612;13.630;2023-08-08T12:05:50;100135.55;;;20.81;65.70
13367;BME280;6752;52.612;13.630;2023-08-08T12:10:53;100123.45;;;21.69;64.23
13367;BME280;6752;52.612;13.630;2023-08-08T12:15:55;100132.80;;;21.60;64.59
13367;BME280;6752;52.612;13.630;2023-08-08T12:20:57;100124.66;;;21.43;65.54
13367;BME280;6752;52.612;13.630;2023-08-08T12:26:02;100130.33;;;21.28;64.53
13367;BME280;6752;52.612;13.630;2023-08-08T12:31:02;100138.97;;;21.64;65.75
13367;BME280;6752;52.612;13.630;2023-08-08T12:36:04;100131.65;;;21.40;64.43
13367;BME280;6752;52.612;13.630;2023-08-08T12:41:07;100112.00;;;22.44;63.99
13367;BME280;6752;52.612;13.630;2023-08-08T12:46:09;100110.70;;;22.53;62.21
13367;BME280;6752;52.612;13.630;2023-08-08T12:51:11;100108.87;;;22.23;62.62
13367;BME280;6752;52.612;13.630;2023-08-08T12:56:14;100121.19;;;21.71;64.71
13367;BME280;6752;52.612;13.630;2023-08-08T13:01:16;100097.48;;;22.36;63.23
13367;BME280;6752;52.612;13.630;2023-08-08T13:06:18;100110.93;;;20.79;65.62
13367;BME280;6752;52.612;13.630;2023-08-08T13:11:21;100134.66;;;19.89;69.46
13367;BME280;6752;52.612;13.630;2023-08-08T13:16:23;100140.20;;;20.08;69.28
13367;BME280;6752;52.612;13.630;2023-08-08T13:21:25;100142.17;;;19.83;68.88
13367;BME280;6752;52.612;13.630;2023-08-08T13:26:28;100161.72;;;19.92;71.72
13367;BME280;6752;52.612;13.630;2023-08-08T13:31:30;100145.33;;;20.07;74.35
13367;BME280;6752;52.612;13.630;2023-08-08T13:36:33;100142.44;;;20.48;75.55
13367;BME280;6752;52.612;13.630;2023-08-08T13:41:35;100143.51;;;19.76;77.32
13367;BME280;6752;52.612;13.630;2023-08-08T13:46:37;100141.53;;;20.53;77.63
13367;BME280;6752;52.612;13.630;2023-08-08T13:51:40;100144.98;;;20.02;76.51
13367;BME280;6752;52.612;13.630;2023-08-08T13:56:42;100169.02;;;19.39;74.18
13367;BME280;6752;52.612;13.630;2023-08-08T14:01:44;100186.99;;;18.49;84.64
13367;BME280;6752;52.612;13.630;2023-08-08T14:06:47;100200.17;;;18.05;83.21
13367;BME280;6752;52.612;13.630;2023-08-08T14:11:49;100182.01;;;18.51;86.74
13367;BME280;6752;52.612;13.630;2023-08-08T14:16:51;100168.17;;;19.58;80.71
13367;BME280;6752;52.612;13.630;2023-08-08T14:21:54;100155.41;;;19.89;75.22
13367;BME280;6752;52.612;13.630;2023-08-08T14:26:56;100161.81;;;20.18;71.26
13367;BME280;6752;52.612;13.630;2023-08-08T14:31:58;100169.56;;;19.82;69.45
13367;BME280;6752;52.612;13.630;2023-08-08T14:37:01;100176.48;;;19.82;66.48
13367;BME280;6752;52.612;13.630;2023-08-08T14:42:03;100186.13;;;19.73;68.88
13367;BME280;6752;52.612;13.630;2023-08-08T14:47:06;100179.22;;;19.73;67.84
13367;BME280;6752;52.612;13.630;2023-08-08T14:52:08;100185.77;;;20.03;71.06
13367;BME280;6752;52.612;13.630;2023-08-08T14:57:10;100168.16;;;20.18;68.99
13367;BME280;6752;52.612;13.630;2023-08-08T15:02:13;100173.28;;;20.06;70.30
13367;BME280;6752;52.612;13.630;2023-08-08T15:07:15;100220.34;;;19.51;75.43
13367;BME280;6752;52.612;13.630;2023-08-08T15:12:17;100211.73;;;18.37;93.94
13367;BME280;6752;52.612;13.630;2023-08-08T15:17:20;100220.14;;;18.39;99.00
13367;BME280;6752;52.612;13.630;2023-08-08T15:22:22;100216.02;;;18.36;95.59
13367;BME280;6752;52.612;13.630;2023-08-08T15:27:24;100215.45;;;18.39;86.56
13367;BME280;6752;52.612;13.630;2023-08-08T15:32:27;100225.28;;;18.58;81.78
13367;BME280;6752;52.612;13.630;2023-08-08T15:37:29;100240.19;;;18.33;83.09
13367;BME280;6752;52.612;13.630;2023-08-08T15:42:32;100307.61;;;17.30;100.00
13367;BME280;6752;52.612;13.630;2023-08-08T15:47:34;100320.09;;;15.68;100.00
13367;BME280;6752;52.612;13.630;2023-08-08T15:52:36;100291.80;;;15.70;100.00
13367;BME280;6752;52.612;13.630;2023-08-08T15:57:39;100281.11;;;16.23;100.00
13367;BME280;6752;52.612;13.630;2023-08-08T16:02:41;100258.87;;;16.32;100.00
13367;BME280;6752;52.612;13.630;2023-08-08T16:07:43;100237.48;;;17.19;100.00
13367;BME280;6752;52.612;13.630;2023-08-08T16:12:46;100219.45;;;17.25;100.00
13367;BME280;6752;52.612;13.630;2023-08-08T16:17:48;100207.47;;;17.02;100.00
13367;BME280;6752;52.612;13.630;2023-08-08T16:22:50;100201.14;;;16.94;100.00
13367;BME280;6752;52.612;13.630;2023-08-08T16:27:53;100217.39;;;17.16;100.00
13367;BME280;6752;52.612;13.630;2023-08-08T16:32:55;100244.06;;;16.38;100.00
13367;BME280;6752;52.612;13.630;2023-08-08T16:37:57;100260.64;;;15.99;100.00
13367;BME280;6752;52.612;13.630;2023-08-08T16:43:00;100281.88;;;15.64;100.00
13367;BME280;6752;52.612;13.630;2023-08-08T16:48:02;100275.19;;;15.23;100.00
13367;BME280;6752;52.612;13.630;2023-08-08T16:53:05;100281.42;;;14.99;100.00
13367;BME280;6752;52.612;13.630;2023-08-08T16:58:07;100283.91;;;15.01;100.00
13367;BME280;6752;52.612;13.630;2023-08-08T17:03:09;100283.63;;;14.89;100.00
13367;BME280;6752;52.612;13.630;2023-08-08T17:08:12;100267.63;;;15.08;100.00
13367;BME280;6752;52.612;13.630;2023-08-08T17:13:14;100261.70;;;15.37;100.00
13367;BME280;6752;52.612;13.630;2023-08-08T17:18:16;100265.20;;;15.43;100.00
13367;BME280;6752;52.612;13.630;2023-08-08T17:23:19;100239.02;;;15.33;100.00
13367;BME280;6752;52.612;13.630;2023-08-08T17:28:21;100241.91;;;15.35;100.00
13367;BME280;6752;52.612;13.630;2023-08-08T17:33:23;100245.56;;;15.27;100.00
13367;BME280;6752;52.612;13.630;2023-08-08T17:38:26;100244.13;;;15.17;100.00
13367;BME280;6752;52.612;13.630;2023-08-08T17:43:28;100252.29;;;15.12;100.00
13367;BME280;6752;52.612;13.630;2023-08-08T17:48:31;100252.27;;;15.09;100.00
13367;BME280;6752;52.612;13.630;2023-08-08T17:53:33;100236.34;;;15.09;100.00
13367;BME280;6752;52.612;13.630;2023-08-08T17:58:35;100227.19;;;14.96;100.00
13367;BME280;6752;52.612;13.630;2023-08-08T18:03:38;100228.20;;;14.89;100.00
13367;BME280;6752;52.612;13.630;2023-08-08T18:08:40;100253.58;;;14.88;100.00
13367;BME280;6752;52.612;13.630;2023-08-08T18:13:42;100239.30;;;14.86;100.00
13367;BME280;6752;52.612;13.630;2023-08-08T18:18:45;100252.31;;;14.85;100.00
13367;BME280;6752;52.612;13.630;2023-08-08T18:23:47;100256.71;;;14.86;100.00
13367;BME280;6752;52.612;13.630;2023-08-08T18:28:50;100253.77;;;14.79;100.00
13367;BME280;6752;52.612;13.630;2023-08-08T18:33:58;100253.42;;;14.86;100.00
13367;BME280;6752;52.612;13.630;2023-08-08T18:39:00;100266.61;;;14.73;100.00
13367;BME280;6752;52.612;13.630;2023-08-08T18:44:02;100280.38;;;14.79;100.00
13367;BME280;6752;52.612;13.630;2023-08-08T18:49:05;100294.26;;;14.67;100.00
13367;BME280;6752;52.612;13.630;2023-08-08T18:54:07;100290.76;;;14.63;100.00
13367;BME280;6752;52.612;13.630;2023-08-08T18:59:10;100311.20;;;14.64;100.00
13367;BME280;6752;52.612;13.630;2023-08-08T19:04:12;100310.38;;;14.63;100.00
13367;BME280;6752;52.612;13.630;2023-08-08T19:09:14;100321.45;;;14.71;100.00
13367;BME280;6752;52.612;13.630;2023-08-08T19:14:17;100321.89;;;14.74;100.00
13367;BME280;6752;52.612;13.630;2023-08-08T19:19:19;100315.27;;;14.70;100.00
13367;BME280;6752;52.612;13.630;2023-08-08T19:24:21;100314.45;;;14.61;100.00
13367;BME280;6752;52.612;13.630;2023-08-08T19:29:24;100316.61;;;14.67;100.00
13367;BME280;6752;52.612;13.630;2023-08-08T19:34:26;100318.47;;;14.64;100.00
13367;BME280;6752;52.612;13.630;2023-08-08T19:39:28;100324.03;;;14.58;100.00
13367;BME280;6752;52.612;13.630;2023-08-08T19:44:31;100324.03;;;14.58;100.00
13367;BME280;6752;52.612;13.630;2023-08-08T19:49:33;100326.06;;;14.43;100.00
13367;BME280;6752;52.612;13.630;2023-08-08T19:54:35;100332.36;;;14.25;100.00
13367;BME280;6752;52.612;13.630;2023-08-08T19:59:38;100331.84;;;14.28;100.00
13367;BME280;6752;52.612;13.630;2023-08-08T20:04:40;100341.27;;;14.37;100.00
13367;BME280;6752;52.612;13.630;2023-08-08T20:09:43;100335.25;;;14.43;100.00
13367;BME280;6752;52.612;13.630;2023-08-08T20:14:45;100354.12;;;14.34;100.00
13367;BME280;6752;52.612;13.630;2023-08-08T20:19:47;100356.00;;;14.20;100.00
13367;BME280;6752;52.612;13.630;2023-08-08T20:24:50;100355.75;;;14.22;100.00
13367;BME280;6752;52.612;13.630;2023-08-08T20:29:52;100341.56;;;14.19;100.00
13367;BME280;6752;52.612;13.630;2023-08-08T20:34:54;100345.16;;;14.00;100.00
13367;BME280;6752;52.612;13.630;2023-08-08T20:39:57;100366.64;;;13.91;100.00
13367;BME280;6752;52.612;13.630;2023-08-08T20:44:59;100366.03;;;13.87;100.00
13367;BME280;6752;52.612;13.630;2023-08-08T20:50:01;100357.95;;;13.77;100.00
13367;BME280;6752;52.612;13.630;2023-08-08T20:55:04;100356.05;;;13.78;100.00
13367;BME280;6752;52.612;13.630;2023-08-08T21:00:06;100355.60;;;13.44;100.00
13367;BME280;6752;52.612;13.630;2023-08-08T21:05:09;100348.20;;;13.76;100.00
13367;BME280;6752;52.612;13.630;2023-08-08T21:10:11;100374.97;;;13.79;100.00
13367;BME280;6752;52.612;13.630;2023-08-08T21:15:13;100403.31;;;13.79;100.00
13367;BME280;6752;52.612;13.630;2023-08-08T21:20:16;100439.73;;;13.71;100.00
13367;BME280;6752;52.612;13.630;2023-08-08T21:25:18;100445.40;;;13.36;100.00
13367;BME280;6752;52.612;13.630;2023-08-08T21:30:20;100432.53;;;13.28;100.00
13367;BME280;6752;52.612;13.630;2023-08-08T21:35:23;100415.83;;;13.02;100.00
13367;BME280;6752;52.612;13.630;2023-08-08T21:40:25;100405.24;;;13.19;100.00
13367;BME280;6752;52.612;13.630;2023-08-08T21:45:27;100404.88;;;13.16;100.00
13367;BME280;6752;52.612;13.630;2023-08-08T21:50:30;100404.84;;;13.33;100.00
13367;BME280;6752;52.612;13.630;2023-08-08T21:55:32;100399.63;;;13.00;100.00
13367;BME280;6752;52.612;13.630;2023-08-08T22:00:35;100400.56;;;12.91;100.00
13367;BME280;6752;52.612;13.630;2023-08-08T22:05:37;100399.58;;;12.51;100.00
13367;BME280;6752;52.612;13.630;2023-08-08T22:10:39;100399.20;;;12.39;100.00
13367;BME280;6752;52.612;13.630;2023-08-08T22:15:42;100406.94;;;12.31;100.00
13367;BME280;6752;52.612;13.630;2023-08-08T22:20:44;100405.11;;;12.48;100.00
13367;BME280;6752;52.612;13.630;2023-08-08T22:25:50;100399.13;;;12.55;100.00
13367;BME280;6752;52.612;13.630;2023-08-08T22:30:49;100396.06;;;12.33;100.00
13367;BME280;6752;52.612;13.630;2023-08-08T22:35:51;100402.22;;;12.29;100.00
13367;BME280;6752;52.612;13.630;2023-08-08T22:40:53;100406.11;;;12.30;100.00
13367;BME280;6752;52.612;13.630;2023-08-08T22:45:56;100418.68;;;12.25;100.00
13367;BME280;6752;52.612;13.630;2023-08-08T22:50:58;100414.72;;;12.31;100.00
13367;BME280;6752;52.612;13.630;2023-08-08T22:56:01;100409.36;;;12.36;100.00
13367;BME280;6752;52.612;13.630;2023-08-08T23:01:03;100404.89;;;12.55;100.00
13367;BME280;6752;52.612;13.630;2023-08-08T23:06:05;100398.97;;;12.67;100.00
13367;BME280;6752;52.612;13.630;2023-08-08T23:11:08;100398.88;;;12.44;100.00
13367;BME280;6752;52.612;13.630;2023-08-08T23:16:10;100393.77;;;12.48;100.00
13367;BME280;6752;52.612;13.630;2023-08-08T23:21:12;100402.02;;;12.50;100.00
13367;BME280;6752;52.612;13.630;2023-08-08T23:26:15;100399.64;;;12.60;100.00
13367;BME280;6752;52.612;13.630;2023-08-08T23:31:17;100405.34;;;12.64;100.00
13367;BME280;6752;52.612;13.630;2023-08-08T23:36:19;100402.02;;;12.62;100.00
13367;BME280;6752;52.612;13.630;2023-08-08T23:41:22;100398.23;;;12.71;100.00
13367;BME280;6752;52.612;13.630;2023-08-08T23:46:24;100391.82;;;12.78;100.00
13367;BME280;6752;52.612;13.630;2023-08-08T23:51:27;100390.55;;;12.77;100.00
13367;BME280;6752;52.612;13.630;2023-08-08T23:56:29;100392.45;;;12.76;100.00
